sensor_id;sensor_type;location;lat;lon;timestamp;pressure;altitude;pressure_sealevel;temperature;humidity
11415;BME280;5763;42.714;23.244;2023-02-04T00:01:28;94364.09;;;4.19;65.80
11415;BME280;5763;42.714;23.244;2023-02-04T00:03:55;94362.16;;;4.20;66.42
11415;BME280;5763;42.714;23.244;2023-02-04T00:06:22;94367.44;;;4.07;66.96
11415;BME280;5763;42.714;23.244;2023-02-04T00:08:49;94358.31;;;3.98;67.46
11415;BME280;5763;42.714;23.244;2023-02-04T00:11:17;94352.28;;;3.90;67.86
11415;BME280;5763;42.714;23.244;2023-02-04T00:13:44;94350.75;;;3.89;68.44
11415;BME280;5763;42.714;23.244;2023-02-04T00:16:10;94334.91;;;3.88;69.22
11415;BME280;5763;42.714;23.244;2023-02-04T00:18:37;94356.00;;;3.96;69.34
11415;BME280;5763;42.714;23.244;2023-02-04T00:21:04;94355.91;;;4.03;69.05
11415;BME280;5763;42.714;23.244;2023-02-04T00:23:31;94341.19;;;4.04;69.04
11415;BME280;5763;42.714;23.244;2023-02-04T00:25:58;94342.38;;;4.03;69.35
11415;BME280;5763;42.714;23.244;2023-02-04T00:28:26;94335.97;;;3.94;69.82
11415;BME280;5763;42.714;23.244;2023-02-04T00:30:53;94332.63;;;3.86;70.38
11415;BME280;5763;42.714;23.244;2023-02-04T00:33:19;94331.81;;;3.89;70.14
11415;BME280;5763;42.714;23.244;2023-02-04T00:35:46;94337.69;;;3.84;70.58
11415;BME280;5763;42.714;23.244;2023-02-04T00:38:13;94317.63;;;3.82;70.52
11415;BME280;5763;42.714;23.244;2023-02-04T00:40:40;94331.81;;;3.89;70.34
11415;BME280;5763;42.714;23.244;2023-02-04T00:43:07;94328.47;;;4.01;69.26
11415;BME280;5763;42.714;23.244;2023-02-04T00:45:35;94315.22;;;4.07;66.51
11415;BME280;5763;42.714;23.244;2023-02-04T00:48:01;94324.13;;;4.07;64.01
11415;BME280;5763;42.714;23.244;2023-02-04T00:50:28;94315.34;;;4.19;62.81
11415;BME280;5763;42.714;23.244;2023-02-04T00:52:55;94329.72;;;4.36;61.93
11415;BME280;5763;42.714;23.244;2023-02-04T00:55:26;94317.13;;;4.45;61.21
11415;BME280;5763;42.714;23.244;2023-02-04T00:57:53;94310.38;;;4.53;60.76
11415;BME280;5763;42.714;23.244;2023-02-04T01:00:20;94310.22;;;4.60;60.25
11415;BME280;5763;42.714;23.244;2023-02-04T01:02:48;94306.50;;;4.70;59.95
11415;BME280;5763;42.714;23.244;2023-02-04T01:05:14;94304.13;;;4.72;60.00
11415;BME280;5763;42.714;23.244;2023-02-04T01:07:41;94301.63;;;4.81;59.67
11415;BME280;5763;42.714;23.244;2023-02-04T01:10:09;94295.19;;;4.91;59.51
11415;BME280;5763;42.714;23.244;2023-02-04T01:12:35;94292.78;;;4.93;59.84
11415;BME280;5763;42.714;23.244;2023-02-04T01:15:02;94291.03;;;5.03;58.92
11415;BME280;5763;42.714;23.244;2023-02-04T01:17:29;94292.81;;;5.09;58.60
11415;BME280;5763;42.714;23.244;2023-02-04T01:19:57;94280.00;;;5.10;58.14
11415;BME280;5763;42.714;23.244;2023-02-04T01:22:24;94278.41;;;5.12;58.06
11415;BME280;5763;42.714;23.244;2023-02-04T01:24:51;94270.28;;;4.96;57.85
11415;BME280;5763;42.714;23.244;2023-02-04T01:27:17;94276.63;;;4.90;57.83
11415;BME280;5763;42.714;23.244;2023-02-04T01:29:44;94276.63;;;4.74;58.71
11415;BME280;5763;42.714;23.244;2023-02-04T01:32:11;94220.72;;;4.48;58.66
11415;BME280;5763;42.714;23.244;2023-02-04T01:34:38;94263.66;;;4.65;58.86
11415;BME280;5763;42.714;23.244;2023-02-04T01:37:06;94249.75;;;4.47;59.39
11415;BME280;5763;42.714;23.244;2023-02-04T01:39:33;94251.13;;;4.55;59.35
11415;BME280;5763;42.714;23.244;2023-02-04T01:42:01;94255.19;;;4.63;59.17
11415;BME280;5763;42.714;23.244;2023-02-04T01:44:29;94251.38;;;4.61;59.61
11415;BME280;5763;42.714;23.244;2023-02-04T01:46:55;94244.00;;;4.61;59.56
11415;BME280;5763;42.714;23.244;2023-02-04T01:49:23;94229.97;;;4.66;59.56
11415;BME280;5763;42.714;23.244;2023-02-04T01:51:50;94234.69;;;4.62;59.53
11415;BME280;5763;42.714;23.244;2023-02-04T01:54:18;94228.75;;;4.67;59.36
11415;BME280;5763;42.714;23.244;2023-02-04T01:56:47;94233.16;;;4.61;59.94
11415;BME280;5763;42.714;23.244;2023-02-04T01:59:17;94230.88;;;4.60;60.10
11415;BME280;5763;42.714;23.244;2023-02-04T02:01:46;94230.31;;;4.68;59.68
11415;BME280;5763;42.714;23.244;2023-02-04T02:04:15;94220.81;;;4.76;59.20
11415;BME280;5763;42.714;23.244;2023-02-04T02:06:45;94226.06;;;4.83;59.41
11415;BME280;5763;42.714;23.244;2023-02-04T02:09:13;94210.88;;;4.86;59.12
11415;BME280;5763;42.714;23.244;2023-02-04T02:11:41;94204.13;;;4.78;59.52
11415;BME280;5763;42.714;23.244;2023-02-04T02:14:08;94200.22;;;4.79;59.48
11415;BME280;5763;42.714;23.244;2023-02-04T02:16:35;94196.41;;;4.92;59.06
11415;BME280;5763;42.714;23.244;2023-02-04T02:19:03;94187.84;;;4.94;59.01
11415;BME280;5763;42.714;23.244;2023-02-04T02:21:36;94194.47;;;4.93;58.42
11415;BME280;5763;42.714;23.244;2023-02-04T02:24:23;94193.13;;;4.85;58.94
11415;BME280;5763;42.714;23.244;2023-02-04T02:26:51;94173.22;;;4.91;58.60
11415;BME280;5763;42.714;23.244;2023-02-04T02:29:19;94166.16;;;4.94;58.41
11415;BME280;5763;42.714;23.244;2023-02-04T02:31:45;94166.28;;;4.90;58.47
11415;BME280;5763;42.714;23.244;2023-02-04T02:34:12;94166.44;;;4.83;58.45
11415;BME280;5763;42.714;23.244;2023-02-04T02:36:39;94155.06;;;4.88;58.41
11415;BME280;5763;42.714;23.244;2023-02-04T02:39:06;94138.38;;;4.90;58.31
11415;BME280;5763;42.714;23.244;2023-02-04T02:41:35;94145.31;;;4.91;58.73
11415;BME280;5763;42.714;23.244;2023-02-04T02:44:02;94126.81;;;4.89;58.46
11415;BME280;5763;42.714;23.244;2023-02-04T02:46:29;94126.13;;;4.85;58.51
11415;BME280;5763;42.714;23.244;2023-02-04T02:48:56;94096.97;;;4.61;58.38
11415;BME280;5763;42.714;23.244;2023-02-04T02:51:23;94134.69;;;4.84;58.39
11415;BME280;5763;42.714;23.244;2023-02-04T02:53:50;94127.31;;;4.84;58.93
11415;BME280;5763;42.714;23.244;2023-02-04T02:56:17;94108.66;;;4.86;58.96
11415;BME280;5763;42.714;23.244;2023-02-04T02:58:46;94112.38;;;4.92;58.85
11415;BME280;5763;42.714;23.244;2023-02-04T03:01:12;94107.31;;;4.94;58.80
11415;BME280;5763;42.714;23.244;2023-02-04T03:03:44;94115.75;;;4.96;58.52
11415;BME280;5763;42.714;23.244;2023-02-04T03:06:16;94098.81;;;4.92;58.82
11415;BME280;5763;42.714;23.244;2023-02-04T03:08:46;94109.25;;;4.94;59.14
11415;BME280;5763;42.714;23.244;2023-02-04T03:11:14;94115.56;;;5.03;58.53
11415;BME280;5763;42.714;23.244;2023-02-04T03:13:41;94122.00;;;5.09;58.28
11415;BME280;5763;42.714;23.244;2023-02-04T03:16:10;94119.63;;;5.11;58.50
11415;BME280;5763;42.714;23.244;2023-02-04T03:18:37;94104.66;;;5.19;58.40
11415;BME280;5763;42.714;23.244;2023-02-04T03:21:05;94109.00;;;5.17;57.92
11415;BME280;5763;42.714;23.244;2023-02-04T03:23:33;94098.59;;;5.15;57.78
11415;BME280;5763;42.714;23.244;2023-02-04T03:26:01;94103.16;;;5.18;57.95
11415;BME280;5763;42.714;23.244;2023-02-04T03:28:29;94101.94;;;5.19;58.16
11415;BME280;5763;42.714;23.244;2023-02-04T03:30:56;94104.66;;;5.19;57.85
11415;BME280;5763;42.714;23.244;2023-02-04T03:33:26;94114.09;;;5.15;58.12
11415;BME280;5763;42.714;23.244;2023-02-04T03:35:55;94118.75;;;5.14;58.33
11415;BME280;5763;42.714;23.244;2023-02-04T03:38:22;94090.38;;;5.19;58.21
11415;BME280;5763;42.714;23.244;2023-02-04T03:40:49;94096.88;;;5.21;58.04
11415;BME280;5763;42.714;23.244;2023-02-04T03:43:16;94082.78;;;5.26;58.02
11415;BME280;5763;42.714;23.244;2023-02-04T03:45:42;94089.44;;;5.38;57.71
11415;BME280;5763;42.714;23.244;2023-02-04T03:48:09;94091.06;;;5.35;58.04
11415;BME280;5763;42.714;23.244;2023-02-04T03:50:37;94088.81;;;5.46;57.90
11415;BME280;5763;42.714;23.244;2023-02-04T03:53:04;94072.19;;;5.44;58.76
11415;BME280;5763;42.714;23.244;2023-02-04T03:55:31;94072.94;;;5.45;58.75
11415;BME280;5763;42.714;23.244;2023-02-04T03:57:57;94062.22;;;5.41;58.89
11415;BME280;5763;42.714;23.244;2023-02-04T04:00:24;94061.22;;;5.35;58.62
11415;BME280;5763;42.714;23.244;2023-02-04T04:02:51;94063.59;;;5.33;58.72
11415;BME280;5763;42.714;23.244;2023-02-04T04:05:18;94057.06;;;5.31;58.58
11415;BME280;5763;42.714;23.244;2023-02-04T04:07:46;94051.00;;;5.27;59.23
11415;BME280;5763;42.714;23.244;2023-02-04T04:10:13;94048.81;;;5.22;60.86
11415;BME280;5763;42.714;23.244;2023-02-04T04:12:39;94041.84;;;5.08;61.46
11415;BME280;5763;42.714;23.244;2023-02-04T04:15:07;94036.19;;;5.03;61.32
11415;BME280;5763;42.714;23.244;2023-02-04T04:17:34;94037.28;;;5.05;61.90
11415;BME280;5763;42.714;23.244;2023-02-04T04:20:00;94019.69;;;4.97;61.58
11415;BME280;5763;42.714;23.244;2023-02-04T04:22:27;94031.00;;;5.08;61.33
11415;BME280;5763;42.714;23.244;2023-02-04T04:24:56;94044.03;;;5.13;61.03
11415;BME280;5763;42.714;23.244;2023-02-04T04:27:23;94056.94;;;5.09;60.73
11415;BME280;5763;42.714;23.244;2023-02-04T04:29:50;94049.03;;;5.15;60.17
11415;BME280;5763;42.714;23.244;2023-02-04T04:32:17;94056.06;;;5.12;60.23
11415;BME280;5763;42.714;23.244;2023-02-04T04:34:44;94059.44;;;5.16;60.14
11415;BME280;5763;42.714;23.244;2023-02-04T04:37:10;94048.50;;;5.20;60.78
11415;BME280;5763;42.714;23.244;2023-02-04T04:39:37;94058.25;;;5.17;61.31
11415;BME280;5763;42.714;23.244;2023-02-04T04:42:05;94073.75;;;5.17;62.13
11415;BME280;5763;42.714;23.244;2023-02-04T04:44:32;94066.25;;;5.08;62.60
11415;BME280;5763;42.714;23.244;2023-02-04T04:46:59;94057.13;;;5.02;62.91
11415;BME280;5763;42.714;23.244;2023-02-04T04:49:25;94069.47;;;5.03;63.51
11415;BME280;5763;42.714;23.244;2023-02-04T04:51:52;94067.00;;;5.09;63.89
11415;BME280;5763;42.714;23.244;2023-02-04T04:54:19;94058.56;;;5.07;64.26
11415;BME280;5763;42.714;23.244;2023-02-04T04:56:46;94072.44;;;5.09;65.18
11415;BME280;5763;42.714;23.244;2023-02-04T04:59:14;94073.28;;;5.06;65.39
11415;BME280;5763;42.714;23.244;2023-02-04T05:01:41;94060.19;;;5.04;66.84
11415;BME280;5763;42.714;23.244;2023-02-04T05:04:07;94066.75;;;5.03;68.15
11415;BME280;5763;42.714;23.244;2023-02-04T05:06:34;94064.00;;;4.91;68.89
11415;BME280;5763;42.714;23.244;2023-02-04T05:09:01;94071.91;;;4.85;69.53
11415;BME280;5763;42.714;23.244;2023-02-04T05:11:27;94089.66;;;4.74;69.32
11415;BME280;5763;42.714;23.244;2023-02-04T05:13:55;94080.94;;;4.66;69.93
11415;BME280;5763;42.714;23.244;2023-02-04T05:16:23;94098.28;;;4.69;70.18
11415;BME280;5763;42.714;23.244;2023-02-04T05:18:50;94088.50;;;4.43;71.61
11415;BME280;5763;42.714;23.244;2023-02-04T05:21:17;94127.53;;;4.45;72.75
11415;BME280;5763;42.714;23.244;2023-02-04T05:23:43;94119.06;;;4.43;73.39
11415;BME280;5763;42.714;23.244;2023-02-04T05:26:10;94118.22;;;4.46;73.92
11415;BME280;5763;42.714;23.244;2023-02-04T05:28:37;94121.03;;;4.27;73.50
11415;BME280;5763;42.714;23.244;2023-02-04T05:31:04;94130.94;;;4.17;73.99
11415;BME280;5763;42.714;23.244;2023-02-04T05:33:32;94138.19;;;4.20;74.64
11415;BME280;5763;42.714;23.244;2023-02-04T05:35:58;94144.97;;;4.12;74.80
11415;BME280;5763;42.714;23.244;2023-02-04T05:38:25;94144.09;;;4.15;74.39
11415;BME280;5763;42.714;23.244;2023-02-04T05:40:52;94145.28;;;4.14;74.17
11415;BME280;5763;42.714;23.244;2023-02-04T05:43:19;94148.00;;;4.14;72.64
11415;BME280;5763;42.714;23.244;2023-02-04T05:45:45;94154.34;;;4.08;72.40
11415;BME280;5763;42.714;23.244;2023-02-04T05:48:12;94140.56;;;4.02;72.80
11415;BME280;5763;42.714;23.244;2023-02-04T05:50:40;94139.38;;;4.03;73.26
11415;BME280;5763;42.714;23.244;2023-02-04T05:53:07;94127.94;;;3.96;73.86
11415;BME280;5763;42.714;23.244;2023-02-04T05:55:34;94113.72;;;3.92;72.99
11415;BME280;5763;42.714;23.244;2023-02-04T05:58:01;94107.88;;;3.93;72.99
11415;BME280;5763;42.714;23.244;2023-02-04T06:00:27;94094.94;;;3.85;72.65
11415;BME280;5763;42.714;23.244;2023-02-04T06:02:54;94102.97;;;3.88;71.74
11415;BME280;5763;42.714;23.244;2023-02-04T06:05:21;94115.22;;;3.93;71.70
11415;BME280;5763;42.714;23.244;2023-02-04T06:07:49;94111.69;;;3.96;71.56
11415;BME280;5763;42.714;23.244;2023-02-04T06:10:16;94110.84;;;3.99;71.55
11415;BME280;5763;42.714;23.244;2023-02-04T06:12:43;94104.31;;;3.96;71.46
11415;BME280;5763;42.714;23.244;2023-02-04T06:15:10;94112.28;;;4.03;71.25
11415;BME280;5763;42.714;23.244;2023-02-04T06:17:37;94116.19;;;4.18;70.54
11415;BME280;5763;42.714;23.244;2023-02-04T06:20:05;94134.56;;;4.27;69.71
11415;BME280;5763;42.714;23.244;2023-02-04T06:22:32;94125.66;;;4.26;69.87
11415;BME280;5763;42.714;23.244;2023-02-04T06:25:00;94122.53;;;4.28;69.83
11415;BME280;5763;42.714;23.244;2023-02-04T06:27:27;94114.41;;;4.28;70.02
11415;BME280;5763;42.714;23.244;2023-02-04T06:29:54;94129.22;;;4.23;70.25
11415;BME280;5763;42.714;23.244;2023-02-04T06:32:21;94130.06;;;4.20;70.14
11415;BME280;5763;42.714;23.244;2023-02-04T06:34:48;94128.53;;;4.19;69.98
11415;BME280;5763;42.714;23.244;2023-02-04T06:37:15;94137.16;;;4.14;69.42
11415;BME280;5763;42.714;23.244;2023-02-04T06:39:42;94144.28;;;4.24;68.96
11415;BME280;5763;42.714;23.244;2023-02-04T06:42:10;94145.91;;;4.38;68.49
11415;BME280;5763;42.714;23.244;2023-02-04T06:44:37;94151.56;;;4.43;67.94
11415;BME280;5763;42.714;23.244;2023-02-04T06:47:04;94148.41;;;4.45;66.97
11415;BME280;5763;42.714;23.244;2023-02-04T06:49:30;94141.56;;;4.56;66.43
11415;BME280;5763;42.714;23.244;2023-02-04T06:51:57;94139.44;;;4.64;65.65
11415;BME280;5763;42.714;23.244;2023-02-04T06:54:24;94141.97;;;4.71;65.72
11415;BME280;5763;42.714;23.244;2023-02-04T06:56:51;94146.53;;;4.90;65.06
11415;BME280;5763;42.714;23.244;2023-02-04T06:59:19;94148.63;;;4.98;64.83
11415;BME280;5763;42.714;23.244;2023-02-04T07:01:45;94140.31;;;5.05;64.73
11415;BME280;5763;42.714;23.244;2023-02-04T07:04:12;94141.84;;;5.06;64.46
11415;BME280;5763;42.714;23.244;2023-02-04T07:06:39;94137.59;;;5.05;64.68
11415;BME280;5763;42.714;23.244;2023-02-04T07:09:06;94143.59;;;5.13;64.29
11415;BME280;5763;42.714;23.244;2023-02-04T07:11:33;94137.19;;;5.19;63.88
11415;BME280;5763;42.714;23.244;2023-02-04T07:14:00;94148.06;;;5.19;63.59
11415;BME280;5763;42.714;23.244;2023-02-04T07:16:28;94141.81;;;5.35;62.92
11415;BME280;5763;42.714;23.244;2023-02-04T07:18:55;94135.09;;;5.39;63.12
11415;BME280;5763;42.714;23.244;2023-02-04T07:21:22;94133.59;;;5.38;63.07
11415;BME280;5763;42.714;23.244;2023-02-04T07:23:48;94121.88;;;5.41;63.21
11415;BME280;5763;42.714;23.244;2023-02-04T07:26:15;94129.25;;;5.41;63.10
11415;BME280;5763;42.714;23.244;2023-02-04T07:28:42;94111.88;;;5.38;63.50
11415;BME280;5763;42.714;23.244;2023-02-04T07:31:09;94117.16;;;5.70;63.11
11415;BME280;5763;42.714;23.244;2023-02-04T07:33:37;94132.09;;;5.91;62.40
11415;BME280;5763;42.714;23.244;2023-02-04T07:36:04;94117.31;;;6.17;61.29
11415;BME280;5763;42.714;23.244;2023-02-04T07:38:30;94116.78;;;6.34;59.78
11415;BME280;5763;42.714;23.244;2023-02-04T07:40:57;94117.44;;;6.38;59.89
11415;BME280;5763;42.714;23.244;2023-02-04T07:43:24;94121.97;;;6.41;59.49
11415;BME280;5763;42.714;23.244;2023-02-04T07:45:51;94118.72;;;6.21;59.62
11415;BME280;5763;42.714;23.244;2023-02-04T07:48:18;94110.16;;;6.23;59.88
11415;BME280;5763;42.714;23.244;2023-02-04T07:50:46;94115.69;;;6.19;60.12
11415;BME280;5763;42.714;23.244;2023-02-04T07:53:13;94111.34;;;6.09;60.27
11415;BME280;5763;42.714;23.244;2023-02-04T07:55:39;94112.22;;;6.06;60.32
11415;BME280;5763;42.714;23.244;2023-02-04T07:58:06;94112.13;;;5.97;60.72
11415;BME280;5763;42.714;23.244;2023-02-04T08:00:33;94118.84;;;5.93;61.45
11415;BME280;5763;42.714;23.244;2023-02-04T08:02:59;94115.69;;;5.94;61.27
11415;BME280;5763;42.714;23.244;2023-02-04T08:05:26;94110.81;;;5.89;60.60
11415;BME280;5763;42.714;23.244;2023-02-04T08:07:56;94118.09;;;5.92;60.53
11415;BME280;5763;42.714;23.244;2023-02-04T08:10:23;94111.16;;;5.91;60.91
11415;BME280;5763;42.714;23.244;2023-02-04T08:12:50;94107.22;;;5.92;61.12
11415;BME280;5763;42.714;23.244;2023-02-04T08:15:17;94112.44;;;5.99;61.21
11415;BME280;5763;42.714;23.244;2023-02-04T08:17:44;94118.09;;;6.05;61.08
11415;BME280;5763;42.714;23.244;2023-02-04T08:20:11;94104.72;;;6.10;60.75
11415;BME280;5763;42.714;23.244;2023-02-04T08:22:38;94112.97;;;6.07;60.69
11415;BME280;5763;42.714;23.244;2023-02-04T08:25:07;94109.94;;;6.05;61.15
11415;BME280;5763;42.714;23.244;2023-02-04T08:27:34;94112.56;;;6.08;61.05
11415;BME280;5763;42.714;23.244;2023-02-04T08:30:01;94113.41;;;6.05;61.12
11415;BME280;5763;42.714;23.244;2023-02-04T08:32:28;94109.19;;;6.04;61.50
11415;BME280;5763;42.714;23.244;2023-02-04T08:34:55;94110.28;;;6.07;61.51
11415;BME280;5763;42.714;23.244;2023-02-04T08:37:22;94118.41;;;6.07;60.61
11415;BME280;5763;42.714;23.244;2023-02-04T08:39:49;94111.47;;;5.93;60.99
11415;BME280;5763;42.714;23.244;2023-02-04T08:42:17;94104.59;;;5.76;62.03
11415;BME280;5763;42.714;23.244;2023-02-04T08:44:44;94103.03;;;5.63;63.22
11415;BME280;5763;42.714;23.244;2023-02-04T08:47:11;94106.41;;;5.67;63.90
11415;BME280;5763;42.714;23.244;2023-02-04T08:49:37;94107.91;;;5.55;64.45
11415;BME280;5763;42.714;23.244;2023-02-04T08:52:04;94102.78;;;5.45;65.09
11415;BME280;5763;42.714;23.244;2023-02-04T08:54:32;94100.84;;;5.45;65.69
11415;BME280;5763;42.714;23.244;2023-02-04T08:56:59;94104.16;;;5.37;66.03
11415;BME280;5763;42.714;23.244;2023-02-04T08:59:28;94100.19;;;5.41;66.03
11415;BME280;5763;42.714;23.244;2023-02-04T09:01:54;94085.09;;;5.40;66.40
11415;BME280;5763;42.714;23.244;2023-02-04T09:04:22;94085.56;;;5.51;66.16
11415;BME280;5763;42.714;23.244;2023-02-04T09:06:49;94090.78;;;5.58;65.36
11415;BME280;5763;42.714;23.244;2023-02-04T09:09:16;94085.88;;;5.53;65.17
11415;BME280;5763;42.714;23.244;2023-02-04T09:11:42;94089.16;;;5.61;64.71
11415;BME280;5763;42.714;23.244;2023-02-04T09:14:09;94086.31;;;5.64;64.00
11415;BME280;5763;42.714;23.244;2023-02-04T09:16:38;94082.53;;;5.62;63.33
11415;BME280;5763;42.714;23.244;2023-02-04T09:19:04;94080.06;;;5.80;63.11
11415;BME280;5763;42.714;23.244;2023-02-04T09:21:34;94083.53;;;5.80;62.81
11415;BME280;5763;42.714;23.244;2023-02-04T09:24:01;94082.66;;;5.71;62.43
11415;BME280;5763;42.714;23.244;2023-02-04T09:26:27;94083.84;;;5.70;62.63
11415;BME280;5763;42.714;23.244;2023-02-04T09:28:54;94089.81;;;5.65;63.85
11415;BME280;5763;42.714;23.244;2023-02-04T09:31:21;94077.88;;;5.62;64.81
11415;BME280;5763;42.714;23.244;2023-02-04T09:33:49;94100.09;;;5.57;65.18
11415;BME280;5763;42.714;23.244;2023-02-04T09:36:16;94077.19;;;5.58;65.71
11415;BME280;5763;42.714;23.244;2023-02-04T09:38:42;94084.91;;;5.47;66.57
11415;BME280;5763;42.714;23.244;2023-02-04T09:41:10;94070.78;;;5.40;67.27
11415;BME280;5763;42.714;23.244;2023-02-04T09:43:40;94078.13;;;5.39;67.27
11415;BME280;5763;42.714;23.244;2023-02-04T09:46:17;94069.25;;;5.39;67.88
11415;BME280;5763;42.714;23.244;2023-02-04T09:48:44;94070.78;;;5.40;68.68
11415;BME280;5763;42.714;23.244;2023-02-04T09:51:15;94073.06;;;5.41;68.15
11415;BME280;5763;42.714;23.244;2023-02-04T09:53:42;94062.94;;;5.42;68.45
11415;BME280;5763;42.714;23.244;2023-02-04T09:56:10;94062.06;;;5.32;69.50
11415;BME280;5763;42.714;23.244;2023-02-04T09:58:39;94059.91;;;5.40;70.02
11415;BME280;5763;42.714;23.244;2023-02-04T10:01:11;94047.66;;;5.35;70.42
11415;BME280;5763;42.714;23.244;2023-02-04T10:03:40;94057.84;;;5.31;71.10
11415;BME280;5763;42.714;23.244;2023-02-04T10:06:13;94052.00;;;5.33;69.62
11415;BME280;5763;42.714;23.244;2023-02-04T10:08:41;94043.94;;;5.29;70.13
11415;BME280;5763;42.714;23.244;2023-02-04T10:11:08;94037.88;;;5.25;69.26
11415;BME280;5763;42.714;23.244;2023-02-04T10:13:37;94036.25;;;5.28;69.19
11415;BME280;5763;42.714;23.244;2023-02-04T10:16:12;94038.63;;;5.26;70.10
11415;BME280;5763;42.714;23.244;2023-02-04T10:18:39;94032.00;;;5.27;70.16
11415;BME280;5763;42.714;23.244;2023-02-04T10:21:15;94030.72;;;5.31;70.08
11415;BME280;5763;42.714;23.244;2023-02-04T10:23:44;94020.72;;;5.28;70.23
11415;BME280;5763;42.714;23.244;2023-02-04T10:26:13;94027.59;;;5.33;71.28
11415;BME280;5763;42.714;23.244;2023-02-04T10:28:40;94038.22;;;5.40;71.30
11415;BME280;5763;42.714;23.244;2023-02-04T10:31:26;94030.50;;;5.38;72.24
11415;BME280;5763;42.714;23.244;2023-02-04T10:34:02;94029.53;;;5.32;73.52
11415;BME280;5763;42.714;23.244;2023-02-04T10:36:30;94029.06;;;5.09;75.29
11415;BME280;5763;42.714;23.244;2023-02-04T10:39:00;94038.34;;;4.95;76.23
11415;BME280;5763;42.714;23.244;2023-02-04T10:41:27;94028.56;;;4.85;77.70
11415;BME280;5763;42.714;23.244;2023-02-04T10:44:01;94017.81;;;4.82;78.42
11415;BME280;5763;42.714;23.244;2023-02-04T10:46:29;94028.19;;;4.99;77.80
11415;BME280;5763;42.714;23.244;2023-02-04T10:48:57;94016.13;;;5.00;78.18
11415;BME280;5763;42.714;23.244;2023-02-04T10:51:24;94024.69;;;4.99;78.56
11415;BME280;5763;42.714;23.244;2023-02-04T10:53:52;94006.03;;;5.01;78.53
11415;BME280;5763;42.714;23.244;2023-02-04T10:56:37;94013.09;;;5.11;77.36
11415;BME280;5763;42.714;23.244;2023-02-04T10:59:04;94007.50;;;5.18;77.76
11415;BME280;5763;42.714;23.244;2023-02-04T11:01:31;94014.19;;;5.13;76.41
11415;BME280;5763;42.714;23.244;2023-02-04T11:03:58;94008.59;;;5.20;76.46
11415;BME280;5763;42.714;23.244;2023-02-04T11:06:25;94003.25;;;5.17;76.50
11415;BME280;5763;42.714;23.244;2023-02-04T11:08:53;94008.47;;;5.24;76.72
11415;BME280;5763;42.714;23.244;2023-02-04T11:11:22;94006.75;;;5.30;76.41
11415;BME280;5763;42.714;23.244;2023-02-04T11:13:59;93977.69;;;5.30;76.84
11415;BME280;5763;42.714;23.244;2023-02-04T11:16:29;93998.63;;;5.42;76.08
11415;BME280;5763;42.714;23.244;2023-02-04T11:18:59;93986.03;;;5.48;76.79
11415;BME280;5763;42.714;23.244;2023-02-04T11:21:28;93987.13;;;5.51;76.69
11415;BME280;5763;42.714;23.244;2023-02-04T11:24:22;93993.84;;;5.46;77.80
11415;BME280;5763;42.714;23.244;2023-02-04T11:26:50;93990.06;;;5.44;77.51
11415;BME280;5763;42.714;23.244;2023-02-04T11:29:28;94001.44;;;5.39;77.36
11415;BME280;5763;42.714;23.244;2023-02-04T11:32:02;93983.84;;;5.18;77.43
11415;BME280;5763;42.714;23.244;2023-02-04T11:34:43;93998.72;;;5.26;77.48
11415;BME280;5763;42.714;23.244;2023-02-04T11:37:28;93989.69;;;5.29;77.93
11415;BME280;5763;42.714;23.244;2023-02-04T11:40:00;93992.41;;;5.29;76.92
11415;BME280;5763;42.714;23.244;2023-02-04T11:42:40;93997.41;;;5.31;76.64
11415;BME280;5763;42.714;23.244;2023-02-04T11:45:12;93984.09;;;5.36;77.11
11415;BME280;5763;42.714;23.244;2023-02-04T11:47:41;93999.59;;;5.48;76.99
11415;BME280;5763;42.714;23.244;2023-02-04T11:50:13;93993.94;;;5.55;76.12
11415;BME280;5763;42.714;23.244;2023-02-04T11:52:41;93991.69;;;5.54;76.56
11415;BME280;5763;42.714;23.244;2023-02-04T11:55:10;93986.56;;;5.56;76.47
11415;BME280;5763;42.714;23.244;2023-02-04T11:57:38;93988.44;;;5.46;76.88
11415;BME280;5763;42.714;23.244;2023-02-04T12:00:12;93982.47;;;5.39;76.88
11415;BME280;5763;42.714;23.244;2023-02-04T12:02:45;93980.06;;;5.41;77.27
11415;BME280;5763;42.714;23.244;2023-02-04T12:05:13;93988.75;;;5.36;77.58
11415;BME280;5763;42.714;23.244;2023-02-04T12:07:41;93990.16;;;5.40;78.62
11415;BME280;5763;42.714;23.244;2023-02-04T12:10:21;93981.16;;;5.43;78.12
11415;BME280;5763;42.714;23.244;2023-02-04T12:12:51;93988.31;;;5.50;77.77
11415;BME280;5763;42.714;23.244;2023-02-04T12:15:21;93982.13;;;5.49;77.59
11415;BME280;5763;42.714;23.244;2023-02-04T12:18:03;93976.81;;;5.46;78.43
11415;BME280;5763;42.714;23.244;2023-02-04T12:20:31;93979.94;;;5.44;78.20
11415;BME280;5763;42.714;23.244;2023-02-04T12:22:58;93974.31;;;5.51;77.89
11415;BME280;5763;42.714;23.244;2023-02-04T12:25:27;93973.22;;;5.49;77.59
11415;BME280;5763;42.714;23.244;2023-02-04T12:27:55;93964.22;;;5.39;78.38
11415;BME280;5763;42.714;23.244;2023-02-04T12:30:23;93965.28;;;5.42;77.21
11415;BME280;5763;42.714;23.244;2023-02-04T12:32:51;93966.72;;;5.46;77.36
11415;BME280;5763;42.714;23.244;2023-02-04T12:35:18;93955.66;;;5.53;77.34
11415;BME280;5763;42.714;23.244;2023-02-04T12:37:45;93961.19;;;5.62;76.50
11415;BME280;5763;42.714;23.244;2023-02-04T12:40:14;93962.03;;;5.59;76.07
11415;BME280;5763;42.714;23.244;2023-02-04T12:42:43;93962.38;;;5.61;75.87
11415;BME280;5763;42.714;23.244;2023-02-04T12:45:11;93964.00;;;5.59;74.80
11415;BME280;5763;42.714;23.244;2023-02-04T12:47:38;93968.25;;;5.60;74.40
11415;BME280;5763;42.714;23.244;2023-02-04T12:50:06;93958.91;;;5.61;74.71
11415;BME280;5763;42.714;23.244;2023-02-04T12:52:33;93967.34;;;5.63;75.69
11415;BME280;5763;42.714;23.244;2023-02-04T12:55:01;93950.66;;;5.27;74.96
11415;BME280;5763;42.714;23.244;2023-02-04T12:57:29;93972.91;;;5.47;75.46
11415;BME280;5763;42.714;23.244;2023-02-04T12:59:57;93975.06;;;5.39;75.86
11415;BME280;5763;42.714;23.244;2023-02-04T13:02:25;93972.16;;;5.34;74.98
11415;BME280;5763;42.714;23.244;2023-02-04T13:04:53;93987.09;;;5.38;75.08
11415;BME280;5763;42.714;23.244;2023-02-04T13:07:20;93960.75;;;5.26;73.04
11415;BME280;5763;42.714;23.244;2023-02-04T13:09:47;93983.53;;;5.29;72.47
11415;BME280;5763;42.714;23.244;2023-02-04T13:12:14;93972.88;;;5.22;71.89
11415;BME280;5763;42.714;23.244;2023-02-04T13:14:41;93974.31;;;5.26;72.23